createdAt,value
2018-07-16T00:00:25.315Z,3.70
2018-07-16T00:02:53.755Z,3.37
2018-07-16T00:05:22.204Z,5.07
2018-07-16T00:07:50.592Z,4.13
2018-07-16T00:10:18.919Z,4.17
2018-07-16T00:12:47.289Z,4.33
2018-07-16T00:15:15.754Z,4.13
2018-07-16T00:17:44.376Z,3.90
2018-07-16T00:20:13.060Z,4.40
2018-07-16T00:22:41.457Z,4.23
2018-07-16T00:25:09.815Z,3.93
2018-07-16T00:27:38.238Z,3.87
2018-07-16T00:30:06.578Z,3.87
2018-07-16T00:32:35.315Z,5.23
2018-07-16T00:35:03.819Z,4.27
2018-07-16T00:37:32.292Z,5.33
2018-07-16T00:40:00.547Z,4.27
2018-07-16T00:42:28.856Z,4.23
2018-07-16T00:44:57.178Z,3.70
2018-07-16T00:47:25.558Z,3.60
2018-07-16T00:49:54.252Z,4.20
2018-07-16T00:52:22.634Z,3.90
2018-07-16T00:54:51.044Z,3.97
2018-07-16T00:57:19.371Z,4.20
2018-07-16T00:59:47.738Z,3.97
2018-07-16T01:02:16.309Z,4.20
2018-07-16T01:04:44.639Z,4.20
2018-07-16T01:07:13.208Z,4.00
2018-07-16T01:09:41.651Z,3.80
2018-07-16T01:12:10.172Z,3.93
2018-07-16T01:14:38.551Z,3.97
2018-07-16T01:17:06.961Z,3.63
2018-07-16T01:19:35.320Z,3.90
2018-07-16T01:22:03.671Z,4.27
2018-07-16T01:24:32.174Z,3.97
2018-07-16T01:27:00.576Z,3.70
2018-07-16T01:29:28.975Z,3.60
2018-07-16T01:31:57.450Z,3.80
2018-07-16T01:34:25.805Z,3.20
2018-07-16T01:36:54.254Z,3.80
2018-07-16T01:39:22.675Z,4.67
2018-07-16T01:41:51.195Z,5.17
2018-07-16T01:44:19.916Z,4.60
2018-07-16T01:46:48.318Z,4.23
2018-07-16T01:49:16.782Z,5.97
2018-07-16T01:51:45.362Z,4.97
2018-07-16T01:54:14.303Z,5.50
2018-07-16T01:56:42.650Z,5.83
2018-07-16T01:59:11.007Z,5.00
2018-07-16T02:01:39.335Z,5.57
2018-07-16T02:04:07.761Z,5.33
2018-07-16T02:06:36.219Z,5.23
2018-07-16T02:09:04.967Z,5.13
2018-07-16T02:11:33.311Z,5.53
2018-07-16T02:14:01.658Z,4.83
2018-07-16T02:16:30.040Z,5.17
2018-07-16T02:18:58.418Z,5.47
2018-07-16T02:21:27.091Z,4.87
2018-07-16T02:23:55.632Z,5.10
2018-07-16T02:26:24.765Z,5.10
2018-07-16T02:28:53.143Z,5.13
2018-07-16T02:31:21.523Z,5.10
2018-07-16T02:33:50.034Z,4.47
2018-07-16T02:36:18.431Z,4.83
2018-07-16T02:38:46.778Z,4.70
2018-07-16T02:41:15.143Z,4.20
2018-07-16T02:43:43.677Z,4.70
2018-07-16T02:46:12.032Z,4.80
2018-07-16T02:48:40.406Z,4.73
2018-07-16T02:51:08.938Z,5.40
2018-07-16T02:53:37.277Z,5.00
2018-07-16T02:56:05.696Z,4.33
2018-07-16T02:58:34.021Z,4.83
2018-07-16T03:01:02.412Z,6.83
2018-07-16T03:03:30.799Z,4.70
2018-07-16T03:05:59.133Z,4.33
2018-07-16T03:08:27.744Z,4.47
2018-07-16T03:10:56.066Z,4.60
2018-07-16T03:13:24.391Z,12.43
2018-07-16T03:15:52.814Z,5.20
2018-07-16T03:18:21.441Z,5.07
2018-07-16T03:20:49.899Z,4.87
2018-07-16T03:23:18.833Z,4.83
2018-07-16T03:25:47.127Z,4.90
2018-07-16T03:28:15.428Z,5.00
2018-07-16T03:30:43.864Z,6.23
2018-07-16T03:33:12.312Z,4.97
2018-07-16T03:35:40.710Z,5.03
2018-07-16T03:38:09.090Z,5.23
2018-07-16T03:40:37.210Z,6.30
2018-07-16T03:43:05.577Z,5.57
2018-07-16T03:45:33.999Z,5.07
2018-07-16T03:48:02.326Z,5.20
2018-07-16T03:50:30.644Z,6.20
2018-07-16T03:52:58.939Z,6.07
2018-07-16T03:55:27.236Z,5.70
2018-07-16T03:57:55.528Z,7.30
2018-07-16T04:00:23.602Z,6.60
2018-07-16T04:02:51.999Z,7.70
2018-07-16T04:05:20.307Z,6.37
2018-07-16T04:07:48.700Z,6.87
2018-07-16T04:10:17.138Z,7.17
2018-07-16T04:12:45.706Z,7.50
2018-07-16T04:15:14.203Z,6.97
2018-07-16T04:17:42.502Z,7.33
2018-07-16T04:20:11.266Z,7.60
2018-07-16T04:22:39.663Z,7.47
2018-07-16T04:25:08.187Z,8.00
2018-07-16T04:27:36.535Z,7.97
2018-07-16T04:30:04.870Z,7.57
2018-07-16T04:32:33.338Z,9.63
2018-07-16T04:35:01.771Z,7.60
2018-07-16T04:37:30.204Z,6.80
2018-07-16T04:39:58.875Z,6.87
2018-07-16T04:42:27.156Z,6.67
2018-07-16T04:44:55.484Z,6.80
2018-07-16T04:47:23.883Z,7.03
2018-07-16T04:49:52.879Z,6.90
2018-07-16T04:52:21.266Z,6.60
2018-07-16T04:54:49.765Z,6.47
2018-07-16T04:57:18.279Z,9.27
2018-07-16T04:59:46.402Z,5.83
2018-07-16T05:02:14.966Z,8.00
2018-07-16T05:04:43.368Z,8.30
2018-07-16T05:07:11.687Z,6.93
2018-07-16T05:09:40.091Z,5.47
2018-07-16T05:12:08.529Z,5.73
2018-07-16T05:14:37.033Z,6.03
2018-07-16T05:17:05.370Z,6.27
2018-07-16T05:19:33.991Z,7.67
2018-07-16T05:22:02.316Z,6.30
2018-07-16T05:24:31.001Z,5.87
2018-07-16T05:26:59.385Z,6.77
2018-07-16T05:29:27.929Z,5.77
2018-07-16T05:31:56.581Z,6.23
2018-07-16T05:34:24.766Z,6.27
2018-07-16T05:36:53.221Z,6.07
2018-07-16T05:39:21.614Z,6.40
2018-07-16T05:41:50.002Z,5.80
2018-07-16T05:44:18.423Z,6.10
2018-07-16T05:46:46.845Z,6.67
2018-07-16T05:49:15.252Z,5.37
2018-07-16T05:51:43.567Z,5.53
2018-07-16T05:54:11.923Z,5.40
2018-07-16T05:56:40.304Z,6.27
2018-07-16T05:59:08.721Z,6.40
2018-07-16T06:01:37.095Z,6.33
2018-07-16T06:04:05.468Z,5.87
2018-07-16T06:06:33.935Z,6.00
2018-07-16T06:09:02.731Z,6.80
2018-07-16T06:11:31.332Z,6.03
2018-07-16T06:13:59.838Z,6.33
2018-07-16T06:16:28.440Z,5.63
2018-07-16T06:18:57.002Z,5.80
2018-07-16T06:21:25.443Z,6.70
2018-07-16T06:23:53.800Z,6.70
2018-07-16T06:26:22.326Z,7.13
2018-07-16T06:28:50.643Z,6.67
2018-07-16T06:31:19.415Z,5.57
2018-07-16T06:33:47.793Z,5.33
2018-07-16T06:36:16.192Z,7.53
2018-07-16T06:38:44.636Z,6.53
2018-07-16T06:41:13.224Z,5.17
2018-07-16T06:43:41.419Z,5.47
2018-07-16T06:46:09.960Z,5.87
2018-07-16T06:48:38.022Z,5.33
2018-07-16T06:51:06.337Z,5.60
2018-07-16T06:53:34.926Z,5.80
2018-07-16T06:56:03.439Z,6.17
2018-07-16T06:58:31.821Z,5.67
2018-07-16T07:01:00.226Z,5.77
2018-07-16T07:03:28.587Z,5.33
2018-07-16T07:05:56.887Z,4.93
2018-07-16T07:08:25.276Z,5.67
2018-07-16T07:10:53.626Z,6.23
2018-07-16T07:13:21.934Z,5.30
2018-07-16T07:15:50.329Z,6.27
2018-07-16T07:18:18.932Z,5.80
2018-07-16T07:20:47.271Z,5.97
2018-07-16T07:23:15.612Z,6.90
2018-07-16T07:25:44.027Z,6.73
2018-07-16T07:28:12.449Z,5.73
2018-07-16T07:30:40.836Z,6.77
2018-07-16T07:33:09.402Z,6.70
2018-07-16T07:35:37.473Z,6.40
2018-07-16T07:38:05.831Z,6.57
2018-07-16T07:40:34.354Z,6.87
2018-07-16T07:43:02.727Z,6.17
2018-07-16T07:45:31.294Z,6.60
2018-07-16T07:47:59.728Z,6.03
2018-07-16T07:50:28.306Z,5.90
2018-07-16T07:52:56.608Z,7.67
2018-07-16T07:55:25.594Z,7.23
2018-07-16T07:57:53.646Z,6.43
2018-07-16T08:00:21.794Z,6.30
2018-07-16T08:02:50.099Z,5.87
2018-07-16T08:05:18.514Z,5.20
2018-07-16T08:07:47.260Z,5.73
2018-07-16T08:10:16.728Z,5.57
2018-07-16T08:12:45.199Z,5.50
2018-07-16T08:15:13.665Z,6.03
2018-07-16T08:17:42.356Z,5.50
2018-07-16T08:20:10.874Z,5.63
2018-07-16T08:22:39.269Z,4.83
2018-07-16T08:25:07.568Z,5.70
2018-07-16T08:27:35.934Z,4.90
2018-07-16T08:30:04.299Z,4.43
2018-07-16T08:32:32.929Z,6.07
2018-07-16T08:35:01.556Z,4.70
2018-07-16T08:37:30.205Z,4.47
2018-07-16T08:39:58.846Z,5.17
2018-07-16T08:42:27.231Z,4.70
2018-07-16T08:44:55.622Z,4.47
2018-07-16T08:47:24.083Z,5.13
2018-07-16T08:49:52.443Z,4.73
2018-07-16T08:52:20.776Z,4.37
2018-07-16T08:54:49.051Z,4.47
2018-07-16T08:57:17.432Z,4.20
2018-07-16T08:59:45.933Z,4.17
2018-07-16T09:02:14.475Z,4.17
2018-07-16T09:04:43.018Z,5.33
2018-07-16T09:07:11.374Z,3.20
2018-07-16T09:09:39.634Z,4.03
2018-07-16T09:12:08.043Z,3.50
2018-07-16T09:14:36.388Z,3.83
2018-07-16T09:17:04.748Z,3.90
2018-07-16T09:19:33.102Z,3.73
2018-07-16T09:22:01.576Z,4.13
2018-07-16T09:24:30.103Z,5.07
2018-07-16T09:26:58.989Z,3.93
2018-07-16T09:29:27.476Z,3.67
2018-07-16T09:31:55.847Z,3.73
2018-07-16T09:34:24.302Z,4.43
2018-07-16T09:36:52.642Z,4.77
2018-07-16T09:39:21.061Z,3.57
2018-07-16T09:41:59.543Z,3.40
2018-07-16T09:44:28.846Z,3.50
2018-07-16T09:46:57.860Z,3.70
2018-07-16T09:49:28.363Z,3.07
2018-07-16T09:52:00.457Z,3.10
2018-07-16T09:54:29.115Z,3.07
2018-07-16T09:56:57.576Z,3.07
2018-07-16T09:59:26.138Z,2.97
2018-07-16T10:01:59.824Z,3.47
2018-07-16T10:04:28.300Z,2.67
2018-07-16T10:06:56.796Z,3.20
2018-07-16T10:09:25.127Z,3.40
2018-07-16T10:11:53.611Z,2.97
2018-07-16T10:14:21.923Z,2.83
2018-07-16T10:16:50.472Z,2.90
2018-07-16T10:19:18.803Z,2.60
2018-07-16T10:21:47.143Z,2.63
2018-07-16T10:24:15.637Z,2.37
2018-07-16T10:26:44.012Z,2.67
2018-07-16T10:29:12.379Z,2.70
2018-07-16T10:31:40.772Z,2.70
2018-07-16T10:34:09.083Z,2.30
2018-07-16T10:36:37.440Z,2.63
2018-07-16T10:39:07.083Z,2.23
2018-07-16T10:41:35.563Z,2.50
2018-07-16T10:44:04.267Z,2.43
2018-07-16T10:46:32.676Z,2.30
2018-07-16T10:49:01.214Z,2.20
2018-07-16T10:51:29.627Z,2.63
2018-07-16T10:53:58.098Z,2.97
2018-07-16T10:56:26.471Z,4.43
2018-07-16T10:58:54.873Z,2.17
2018-07-16T11:01:23.274Z,2.47
2018-07-16T11:03:51.618Z,2.30
2018-07-16T11:06:22.745Z,2.27
2018-07-16T11:08:52.539Z,2.02
2018-07-16T11:11:21.351Z,2.00
2018-07-16T11:13:49.875Z,2.95
2018-07-16T11:16:18.300Z,2.73
2018-07-16T11:18:47.021Z,2.50
2018-07-16T11:21:15.680Z,2.27
2018-07-16T11:23:44.272Z,2.87
2018-07-16T11:26:12.627Z,2.67
2018-07-16T11:28:41.022Z,2.10
2018-07-16T11:31:09.407Z,2.22
2018-07-16T11:33:37.779Z,2.12
2018-07-16T11:36:06.117Z,2.60
2018-07-16T11:38:34.607Z,2.60
2018-07-16T11:41:03.002Z,2.52
2018-07-16T11:43:31.492Z,2.42
2018-07-16T11:45:59.860Z,2.10
2018-07-16T11:48:28.505Z,2.20
2018-07-16T11:50:56.866Z,3.27
2018-07-16T11:53:25.202Z,2.47
2018-07-16T11:55:53.599Z,2.40
2018-07-16T11:58:22.015Z,2.47
2018-07-16T12:00:50.411Z,2.40
2018-07-16T12:03:18.770Z,2.47
2018-07-16T12:05:47.441Z,2.57
2018-07-16T12:08:15.894Z,16.77
2018-07-16T12:10:44.305Z,2.77
2018-07-16T12:13:12.703Z,2.97
2018-07-16T12:15:41.032Z,2.97
2018-07-16T12:18:09.360Z,5.27
2018-07-16T12:20:37.804Z,5.70
2018-07-16T12:23:06.080Z,6.40
2018-07-16T12:25:34.437Z,2.60
2018-07-16T12:28:02.819Z,5.10
2018-07-16T12:30:31.285Z,3.00
2018-07-16T12:32:59.765Z,9.23
2018-07-16T12:35:28.168Z,2.30
2018-07-16T12:37:56.515Z,3.07
2018-07-16T12:40:24.962Z,4.50
2018-07-16T12:42:53.718Z,4.12
2018-07-16T12:45:22.080Z,14.60
2018-07-16T12:47:50.420Z,5.67
2018-07-16T12:50:18.910Z,2.92
2018-07-16T12:52:47.255Z,3.20
2018-07-16T12:55:15.679Z,2.37
2018-07-16T12:57:44.021Z,2.58
2018-07-16T13:00:12.383Z,3.08
2018-07-16T13:02:40.778Z,6.97
2018-07-16T13:05:09.190Z,5.10
2018-07-16T13:07:37.598Z,5.92
2018-07-16T13:10:06.072Z,3.40
2018-07-16T13:12:34.755Z,19.62
2018-07-16T13:15:03.297Z,8.50
2018-07-16T13:17:31.784Z,12.40
2018-07-16T13:20:00.492Z,13.85
2018-07-16T13:22:29.055Z,12.45
2018-07-16T13:24:57.531Z,2.75
2018-07-16T13:27:25.862Z,4.42
2018-07-16T13:29:54.776Z,8.98
2018-07-16T13:32:23.151Z,23.83
2018-07-16T13:34:51.597Z,8.88
2018-07-16T13:37:20.184Z,5.58
2018-07-16T13:39:49.245Z,8.43
2018-07-16T13:42:17.680Z,6.25
2018-07-16T13:44:46.005Z,6.33
2018-07-16T13:47:14.423Z,4.55
2018-07-16T13:49:42.840Z,2.90
2018-07-16T13:52:11.420Z,3.30
2018-07-16T13:54:39.795Z,4.63
2018-07-16T13:57:08.271Z,7.42
2018-07-16T13:59:37.136Z,6.53
2018-07-16T14:02:06.099Z,4.07
2018-07-16T14:04:34.700Z,3.40
2018-07-16T14:07:03.508Z,9.18
2018-07-16T14:09:32.020Z,4.13
2018-07-16T14:12:00.464Z,2.90
2018-07-16T14:14:28.979Z,2.87
2018-07-16T14:16:57.606Z,2.62
2018-07-16T14:19:26.038Z,2.83
2018-07-16T14:21:54.399Z,2.83
2018-07-16T14:24:22.819Z,2.90
2018-07-16T14:26:51.272Z,2.33
2018-07-16T14:29:20.144Z,3.35
2018-07-16T14:31:48.590Z,4.37
2018-07-16T14:34:17.491Z,11.90
2018-07-16T14:36:45.560Z,3.27
2018-07-16T14:39:13.947Z,3.90
2018-07-16T14:41:48.295Z,3.53
2018-07-16T14:44:16.808Z,3.00
2018-07-16T14:46:45.217Z,3.50
2018-07-16T14:49:13.690Z,2.80
2018-07-16T14:51:42.084Z,3.13
2018-07-16T14:54:10.421Z,2.93
2018-07-16T14:56:38.950Z,7.27
2018-07-16T14:59:07.249Z,12.00
2018-07-16T15:01:35.825Z,5.63
2018-07-16T15:04:04.502Z,5.67
2018-07-16T15:06:33.133Z,8.23
2018-07-16T15:09:01.579Z,4.30
2018-07-16T15:11:30.211Z,3.33
2018-07-16T15:13:58.930Z,5.13
2018-07-16T15:16:27.774Z,3.00
2018-07-16T15:18:56.124Z,4.63
2018-07-16T15:21:24.675Z,8.67
2018-07-16T15:23:53.288Z,8.57
2018-07-16T15:26:21.779Z,4.47
2018-07-16T15:28:50.057Z,5.40
2018-07-16T15:31:18.477Z,4.83
2018-07-16T15:33:46.828Z,5.83
2018-07-16T15:36:15.172Z,5.50
2018-07-16T15:38:43.495Z,4.83
2018-07-16T15:41:11.770Z,3.90
2018-07-16T15:43:40.183Z,3.70
2018-07-16T15:46:08.516Z,3.03
2018-07-16T15:48:36.974Z,4.17
2018-07-16T15:51:05.279Z,5.53
2018-07-16T15:53:34.032Z,3.80
2018-07-16T15:56:02.600Z,3.50
2018-07-16T15:58:31.180Z,5.53
2018-07-16T16:00:59.577Z,3.77
2018-07-16T16:03:27.927Z,3.43
2018-07-16T16:05:56.227Z,4.13
2018-07-16T16:08:24.551Z,6.30
2018-07-16T16:10:52.822Z,7.27
2018-07-16T16:13:21.395Z,10.30
2018-07-16T16:15:49.717Z,8.23
2018-07-16T16:18:18.071Z,12.80
2018-07-16T16:20:46.119Z,7.33
2018-07-16T16:23:14.570Z,8.23
2018-07-16T16:25:42.802Z,6.37
2018-07-16T16:28:11.175Z,5.50
2018-07-16T16:30:42.454Z,5.37
2018-07-16T16:33:10.771Z,4.33
2018-07-16T16:35:39.103Z,4.20
2018-07-16T16:38:07.496Z,3.70
2018-07-16T16:40:35.838Z,3.67
2018-07-16T16:43:07.301Z,3.33
2018-07-16T16:45:35.657Z,4.23
2018-07-16T16:48:04.047Z,3.57
2018-07-16T16:50:32.359Z,3.60
2018-07-16T16:53:01.149Z,3.23
2018-07-16T16:55:29.841Z,3.43
2018-07-16T16:57:58.419Z,4.37
2018-07-16T17:00:26.812Z,7.93
2018-07-16T17:02:55.100Z,5.40
2018-07-16T17:05:23.561Z,3.77
2018-07-16T17:07:51.887Z,7.53
2018-07-16T17:10:20.270Z,5.83
2018-07-16T17:12:48.811Z,4.73
2018-07-16T17:15:17.183Z,7.20
2018-07-16T17:17:45.563Z,4.23
2018-07-16T17:20:14.040Z,4.50
2018-07-16T17:22:42.331Z,4.30
2018-07-16T17:25:10.695Z,4.27
2018-07-16T17:27:39.204Z,5.00
2018-07-16T17:30:07.262Z,4.80
2018-07-16T17:32:35.737Z,4.07
2018-07-16T17:35:05.102Z,3.30
2018-07-16T17:37:36.564Z,4.00
2018-07-16T17:40:04.967Z,5.67
2018-07-16T17:42:33.384Z,3.70
2018-07-16T17:45:01.920Z,3.67
2018-07-16T17:47:30.731Z,3.90
2018-07-16T17:49:59.172Z,3.20
2018-07-16T17:52:27.563Z,3.23
2018-07-16T17:54:55.994Z,3.37
2018-07-16T17:57:24.482Z,3.53
2018-07-16T17:59:52.836Z,3.03
2018-07-16T18:02:21.295Z,3.63
2018-07-16T18:04:49.656Z,3.07
2018-07-16T18:07:20.968Z,3.27
2018-07-16T18:09:51.409Z,3.07
2018-07-16T18:12:19.943Z,9.03
2018-07-16T18:14:48.368Z,9.67
2018-07-16T18:17:16.758Z,31.77
2018-07-16T18:19:45.156Z,12.57
2018-07-16T18:22:13.589Z,7.50
2018-07-16T18:24:42.056Z,6.00
2018-07-16T18:27:10.386Z,8.73
2018-07-16T18:29:38.687Z,4.10
2018-07-16T18:32:07.611Z,3.23
2018-07-16T18:34:36.490Z,3.50
2018-07-16T18:37:05.285Z,3.80
2018-07-16T18:39:33.872Z,4.70
2018-07-16T18:42:01.915Z,4.77
2018-07-16T18:44:30.268Z,4.47
2018-07-16T18:46:58.725Z,7.33
2018-07-16T18:49:27.273Z,5.17
2018-07-16T18:51:55.823Z,5.63
2018-07-16T18:54:24.006Z,6.83
2018-07-16T18:56:52.651Z,31.90
2018-07-16T18:59:21.018Z,24.97
2018-07-16T19:01:49.412Z,21.13
2018-07-16T19:04:17.839Z,75.30
2018-07-16T19:06:46.407Z,37.43
2018-07-16T19:09:14.787Z,26.90
2018-07-16T19:11:43.107Z,24.90
2018-07-16T19:14:11.492Z,18.37
2018-07-16T19:16:39.796Z,36.43
2018-07-16T19:19:08.147Z,35.70
2018-07-16T19:21:36.186Z,70.17
2018-07-16T19:24:04.571Z,25.07
2018-07-16T19:26:33.033Z,8.77
2018-07-16T19:29:01.401Z,7.23
2018-07-16T19:31:30.571Z,10.37
2018-07-16T19:33:58.941Z,4.63
2018-07-16T19:36:27.489Z,3.97
2018-07-16T19:38:55.906Z,5.53
2018-07-16T19:41:24.177Z,3.07
2018-07-16T19:43:52.746Z,3.40
2018-07-16T19:46:21.105Z,3.20
2018-07-16T19:48:49.442Z,5.50
2018-07-16T19:51:17.946Z,3.50
2018-07-16T19:53:46.382Z,3.23
2018-07-16T19:56:14.683Z,3.37
2018-07-16T19:58:42.973Z,3.53
2018-07-16T20:01:11.289Z,2.77
2018-07-16T20:03:39.699Z,3.87
2018-07-16T20:06:08.055Z,4.27
2018-07-16T20:08:36.581Z,3.73
2018-07-16T20:11:04.992Z,4.87
2018-07-16T20:13:33.019Z,3.70
2018-07-16T20:16:01.565Z,3.00
2018-07-16T20:18:29.939Z,3.10
2018-07-16T20:20:59.820Z,3.50
2018-07-16T20:23:28.750Z,6.50
2018-07-16T20:25:58.400Z,4.33
2018-07-16T20:28:27.683Z,3.57
2018-07-16T20:30:56.175Z,4.87
2018-07-16T20:33:25.367Z,7.37
2018-07-16T20:35:53.807Z,3.53
2018-07-16T20:38:22.173Z,4.63
2018-07-16T20:40:50.675Z,4.97
2018-07-16T20:43:19.892Z,5.73
2018-07-16T20:45:48.361Z,3.47
2018-07-16T20:48:41.874Z,4.00
2018-07-16T20:51:11.283Z,3.10
2018-07-16T20:53:40.921Z,5.00
2018-07-16T20:56:09.511Z,3.00
2018-07-16T20:58:37.942Z,5.50
2018-07-16T21:01:06.396Z,4.60
2018-07-16T21:03:34.715Z,4.57
2018-07-16T21:06:03.420Z,3.83
2018-07-16T21:08:31.961Z,3.93
2018-07-16T21:11:00.385Z,4.07
2018-07-16T21:13:28.871Z,4.00
2018-07-16T21:15:57.927Z,4.10
2018-07-16T21:18:26.525Z,4.10
2018-07-16T21:20:55.056Z,4.40
2018-07-16T21:23:23.421Z,4.30
2018-07-16T21:25:51.610Z,4.10
2018-07-16T21:28:19.722Z,3.77
2018-07-16T21:30:48.353Z,4.37
2018-07-16T21:33:16.671Z,4.67
2018-07-16T21:35:45.411Z,4.47
2018-07-16T21:38:13.747Z,9.67
2018-07-16T21:40:42.260Z,4.67
2018-07-16T21:43:10.527Z,3.97
2018-07-16T21:45:39.051Z,4.80
2018-07-16T21:48:07.414Z,4.50
2018-07-16T21:50:36.054Z,7.67
2018-07-16T21:53:04.456Z,5.00
2018-07-16T21:55:32.831Z,5.13
2018-07-16T21:58:01.204Z,6.23
2018-07-16T22:00:31.044Z,12.83
2018-07-16T22:03:00.811Z,6.57
2018-07-16T22:05:30.291Z,5.60
2018-07-16T22:07:59.638Z,5.50
2018-07-16T22:10:28.906Z,5.57
2018-07-16T22:12:58.154Z,5.27
2018-07-16T22:15:28.623Z,4.90
2018-07-16T22:17:57.919Z,5.53
2018-07-16T22:20:26.989Z,5.27
2018-07-16T22:22:55.498Z,10.53
2018-07-16T22:25:24.627Z,6.70
2018-07-16T22:27:53.169Z,5.10
2018-07-16T22:30:21.826Z,5.47
2018-07-16T22:32:50.320Z,5.07
2018-07-16T22:35:18.687Z,4.90
2018-07-16T22:37:47.047Z,4.97
2018-07-16T22:40:15.390Z,4.37
2018-07-16T22:42:43.760Z,4.20
2018-07-16T22:45:12.117Z,4.27
2018-07-16T22:47:40.618Z,4.30
2018-07-16T22:50:09.016Z,4.33
2018-07-16T22:52:37.335Z,4.90
2018-07-16T22:55:05.778Z,4.07
2018-07-16T22:57:34.283Z,3.87
2018-07-16T23:00:02.686Z,3.47
2018-07-16T23:02:31.299Z,4.93
2018-07-16T23:04:59.342Z,3.50
2018-07-16T23:07:27.720Z,3.37
2018-07-16T23:09:56.077Z,3.70
2018-07-16T23:12:24.451Z,3.83
2018-07-16T23:14:52.748Z,3.50
2018-07-16T23:17:22.021Z,3.83
2018-07-16T23:19:50.351Z,7.70
2018-07-16T23:22:18.859Z,3.20
2018-07-16T23:24:47.247Z,3.63
2018-07-16T23:27:15.555Z,4.07
2018-07-16T23:29:43.883Z,3.30
2018-07-16T23:32:12.243Z,3.60
2018-07-16T23:34:40.584Z,4.00
2018-07-16T23:37:08.969Z,5.93
2018-07-16T23:39:37.417Z,3.40
2018-07-16T23:42:05.720Z,3.57
2018-07-16T23:44:34.035Z,4.00
2018-07-16T23:47:02.387Z,3.83
2018-07-16T23:49:31.757Z,3.37
2018-07-16T23:52:00.113Z,3.80
2018-07-16T23:54:28.437Z,3.97
2018-07-16T23:56:56.872Z,4.03
2018-07-16T23:59:25.235Z,3.87
